createdAt,value
2019-02-12T00:00:03.889Z,1015.85
2019-02-12T00:01:03.974Z,1015.74
2019-02-12T00:02:03.862Z,1015.85
2019-02-12T00:03:03.857Z,1015.81
2019-02-12T00:04:03.839Z,1015.85
2019-02-12T00:05:03.896Z,1015.90
2019-02-12T00:06:03.871Z,1015.83
2019-02-12T00:07:03.839Z,1015.90
2019-02-12T00:08:03.806Z,1016.01
2019-02-12T00:09:03.800Z,1015.97
2019-02-12T00:10:03.786Z,1015.97
2019-02-12T00:11:03.768Z,1015.98
2019-02-12T00:12:03.811Z,1015.92
2019-02-12T00:13:03.759Z,1015.99
2019-02-12T00:14:03.741Z,1015.93
2019-02-12T00:15:03.741Z,1015.91
2019-02-12T00:16:03.710Z,1015.93
2019-02-12T00:17:03.708Z,1015.95
2019-02-12T00:18:03.743Z,1015.90
2019-02-12T00:19:03.713Z,1015.95
2019-02-12T00:20:03.696Z,1015.84
2019-02-12T00:21:08.975Z,1015.84
2019-02-12T00:22:04.654Z,1015.90
2019-02-12T00:23:03.659Z,1015.83
2019-02-12T00:24:03.660Z,1015.80
2019-02-12T00:25:03.633Z,1015.82
2019-02-12T00:26:03.611Z,1015.85
2019-02-12T00:27:03.604Z,1015.79
2019-02-12T00:28:03.582Z,1015.85
2019-02-12T00:29:03.578Z,1015.88
2019-02-12T00:30:03.617Z,1015.83
2019-02-12T00:31:03.561Z,1015.87
2019-02-12T00:32:03.592Z,1015.87
2019-02-12T00:33:03.570Z,1015.88
2019-02-12T00:34:03.522Z,1015.81
2019-02-12T00:35:03.515Z,1015.80
2019-02-12T00:36:03.500Z,1015.84
2019-02-12T00:37:03.541Z,1015.77
2019-02-12T00:38:03.517Z,1015.78
2019-02-12T00:39:03.462Z,1015.84
2019-02-12T00:40:03.459Z,1015.90
2019-02-12T00:41:03.450Z,1015.87
2019-02-12T00:42:03.446Z,1015.92
2019-02-12T00:43:03.485Z,1015.90
2019-02-12T00:44:03.420Z,1015.89
2019-02-12T00:45:03.480Z,1015.99
2019-02-12T00:46:03.395Z,1015.90
2019-02-12T00:47:03.412Z,1015.86
2019-02-12T00:48:03.373Z,1015.85
2019-02-12T00:49:03.372Z,1015.89
2019-02-12T00:50:03.393Z,1015.92
2019-02-12T00:51:03.401Z,1015.88
2019-02-12T00:52:03.339Z,1015.80
2019-02-12T00:53:03.319Z,1015.87
2019-02-12T00:54:03.321Z,1015.86
2019-02-12T00:55:03.294Z,1015.84
2019-02-12T00:56:03.289Z,1015.89
2019-02-12T00:57:03.319Z,1015.94
2019-02-12T00:58:03.270Z,1015.94
2019-02-12T00:59:03.260Z,1015.98
2019-02-12T01:00:04.764Z,1016.01
2019-02-12T01:01:03.245Z,1015.97
2019-02-12T01:02:03.289Z,1015.99
2019-02-12T01:03:03.254Z,1015.96
2019-02-12T01:04:03.190Z,1016.02
2019-02-12T01:05:04.408Z,1016.02
2019-02-12T01:06:03.197Z,1015.99
2019-02-12T01:07:03.199Z,1015.98
2019-02-12T01:08:03.148Z,1015.97
2019-02-12T01:09:03.211Z,1016.02
2019-02-12T01:10:03.134Z,1016.03
2019-02-12T01:11:03.119Z,1016.07
2019-02-12T01:12:03.116Z,1016.09
2019-02-12T01:13:03.107Z,1016.09
2019-02-12T01:14:03.087Z,1016.10
2019-02-12T01:15:03.146Z,1016.14
2019-02-12T01:16:03.065Z,1016.14
2019-02-12T01:17:03.112Z,1016.07
2019-02-12T01:18:03.062Z,1016.16
2019-02-12T01:19:03.076Z,1016.16
2019-02-12T01:20:03.019Z,1016.14
2019-02-12T01:21:03.014Z,1016.24
2019-02-12T01:22:03.004Z,1016.28
2019-02-12T01:23:03.012Z,1016.24
2019-02-12T01:24:02.988Z,1016.26
2019-02-12T01:25:03.041Z,1016.33
2019-02-12T01:26:02.964Z,1016.31
2019-02-12T01:27:02.939Z,1016.35
2019-02-12T01:28:02.939Z,1016.39
2019-02-12T01:29:02.936Z,1016.41
2019-02-12T01:30:02.996Z,1016.45
2019-02-12T01:31:02.945Z,1016.44
2019-02-12T01:32:02.904Z,1016.47
2019-02-12T01:33:02.885Z,1016.48
2019-02-12T01:34:02.890Z,1016.51
2019-02-12T01:35:02.880Z,1016.40
2019-02-12T01:36:03.108Z,1016.43
2019-02-12T01:37:02.830Z,1016.54
2019-02-12T01:38:02.838Z,1016.49
2019-02-12T01:39:02.819Z,1016.56
2019-02-12T01:40:02.820Z,1016.52
2019-02-12T01:41:02.790Z,1016.51
2019-02-12T01:42:02.870Z,1016.63
2019-02-12T01:43:02.766Z,1016.60
2019-02-12T01:44:02.759Z,1016.58
2019-02-12T01:45:02.762Z,1016.58
2019-02-12T01:46:02.764Z,1016.63
2019-02-12T01:47:02.737Z,1016.62
2019-02-12T01:48:02.782Z,1016.68
2019-02-12T01:49:02.717Z,1016.68
2019-02-12T01:50:02.695Z,1016.67
2019-02-12T01:51:02.693Z,1016.63
2019-02-12T01:52:02.682Z,1016.65
2019-02-12T01:53:02.672Z,1016.73
2019-02-12T01:54:02.723Z,1016.62
2019-02-12T01:55:02.659Z,1016.58
2019-02-12T01:56:02.634Z,1016.66
2019-02-12T01:57:02.631Z,1016.68
2019-02-12T01:58:02.610Z,1016.66
2019-02-12T01:59:02.607Z,1016.71
2019-02-12T02:00:02.644Z,1016.70
2019-02-12T02:01:02.584Z,1016.68
2019-02-12T02:02:02.579Z,1016.65
2019-02-12T02:03:02.563Z,1016.71
2019-02-12T02:04:02.552Z,1016.70
2019-02-12T02:05:02.603Z,1016.73
2019-02-12T02:06:02.529Z,1016.76
2019-02-12T02:07:02.524Z,1016.76
2019-02-12T02:08:02.512Z,1016.71
2019-02-12T02:09:02.487Z,1016.69
2019-02-12T02:10:02.480Z,1016.76
2019-02-12T02:11:02.501Z,1016.69
2019-02-12T02:12:02.450Z,1016.74
2019-02-12T02:13:02.510Z,1016.69
2019-02-12T02:14:02.445Z,1016.74
2019-02-12T02:15:02.425Z,1016.71
2019-02-12T02:16:02.501Z,1016.73
2019-02-12T02:17:02.396Z,1016.74
2019-02-12T02:18:02.424Z,1016.73
2019-02-12T02:19:02.380Z,1016.65
2019-02-12T02:20:02.384Z,1016.60
2019-02-12T02:21:02.360Z,1016.56
2019-02-12T02:22:02.398Z,1016.60
2019-02-12T02:23:09.184Z,1016.62
2019-02-12T02:24:02.332Z,1016.67
2019-02-12T02:25:02.330Z,1016.62
2019-02-12T02:26:02.312Z,1016.72
2019-02-12T02:27:02.298Z,1016.79
2019-02-12T02:28:02.356Z,1016.68
2019-02-12T02:29:02.276Z,1016.75
2019-02-12T02:30:02.317Z,1016.87
2019-02-12T02:31:02.246Z,1016.83
2019-02-12T02:32:02.285Z,1016.85
2019-02-12T02:33:02.240Z,1016.85
2019-02-12T02:34:02.225Z,1016.88
2019-02-12T02:35:02.204Z,1016.86
2019-02-12T02:36:02.431Z,1016.87
2019-02-12T02:37:02.186Z,1016.95
2019-02-12T02:38:02.261Z,1016.96
2019-02-12T02:39:02.164Z,1016.95
2019-02-12T02:40:02.180Z,1016.99
2019-02-12T02:41:02.144Z,1016.98
2019-02-12T02:42:02.150Z,1017.00
2019-02-12T02:43:02.145Z,1016.96
2019-02-12T02:44:02.165Z,1016.96
2019-02-12T02:45:02.117Z,1016.96
2019-02-12T02:46:02.100Z,1016.83
2019-02-12T02:47:02.087Z,1016.86
2019-02-12T02:48:02.065Z,1016.93
2019-02-12T02:49:02.056Z,1016.92
2019-02-12T02:50:03.418Z,1016.95
2019-02-12T02:51:02.062Z,1017.00
2019-02-12T02:52:02.020Z,1017.03
2019-02-12T02:53:02.013Z,1017.03
2019-02-12T02:54:02.055Z,1017.07
2019-02-12T02:55:02.002Z,1017.05
2019-02-12T02:56:01.978Z,1016.96
2019-02-12T02:57:01.981Z,1017.02
2019-02-12T02:58:01.967Z,1016.98
2019-02-12T02:59:01.949Z,1017.03
2019-02-12T03:00:01.993Z,1017.03
2019-02-12T03:01:01.922Z,1017.02
2019-02-12T03:02:01.911Z,1017.01
2019-02-12T03:03:01.915Z,1017.06
2019-02-12T03:04:01.911Z,1017.07
2019-02-12T03:05:01.978Z,1017.08
2019-02-12T03:06:01.872Z,1017.11
2019-02-12T03:07:01.868Z,1017.06
2019-02-12T03:08:01.855Z,1017.04
2019-02-12T03:09:01.854Z,1017.06
2019-02-12T03:10:01.843Z,1017.02
2019-02-12T03:11:01.867Z,1016.98
2019-02-12T03:12:01.810Z,1016.99
2019-02-12T03:13:01.819Z,1017.06
2019-02-12T03:14:01.791Z,1017.12
2019-02-12T03:15:01.822Z,1017.08
2019-02-12T03:16:01.771Z,1017.17
2019-02-12T03:17:01.758Z,1017.12
2019-02-12T03:18:01.763Z,1017.16
2019-02-12T03:19:01.728Z,1017.16
2019-02-12T03:20:01.743Z,1017.24
2019-02-12T03:21:01.786Z,1017.19
2019-02-12T03:22:03.782Z,1017.33
2019-02-12T03:23:01.691Z,1017.22
2019-02-12T03:24:01.675Z,1017.22
2019-02-12T03:25:01.674Z,1017.22
2019-02-12T03:26:01.772Z,1017.21
2019-02-12T03:27:01.665Z,1017.23
2019-02-12T03:28:01.637Z,1017.22
2019-02-12T03:29:01.707Z,1017.26
2019-02-12T03:30:01.642Z,1017.27
2019-02-12T03:31:01.625Z,1017.38
2019-02-12T03:32:01.638Z,1017.42
2019-02-12T03:33:01.613Z,1017.46
2019-02-12T03:34:01.600Z,1017.43
2019-02-12T03:35:01.584Z,1017.49
2019-02-12T03:36:01.553Z,1017.51
2019-02-12T03:37:01.544Z,1017.57
2019-02-12T03:38:01.580Z,1017.49
2019-02-12T03:39:01.528Z,1017.48
2019-02-12T03:40:01.515Z,1017.55
2019-02-12T03:41:01.515Z,1017.55
2019-02-12T03:42:01.474Z,1017.50
2019-02-12T03:43:01.480Z,1017.52
2019-02-12T03:44:01.516Z,1017.55
2019-02-12T03:45:01.455Z,1017.52
2019-02-12T03:46:01.513Z,1017.59
2019-02-12T03:47:01.434Z,1017.45
2019-02-12T03:48:01.443Z,1017.51
2019-02-12T03:49:01.426Z,1017.51
2019-02-12T03:50:01.419Z,1017.53
2019-02-12T03:51:01.375Z,1017.52
2019-02-12T03:52:01.429Z,1017.47
2019-02-12T03:53:01.369Z,1017.50
2019-02-12T03:54:01.362Z,1017.56
2019-02-12T03:55:01.349Z,1017.55
2019-02-12T03:56:01.333Z,1017.57
2019-02-12T03:57:01.333Z,1017.55
2019-02-12T03:58:01.394Z,1017.62
2019-02-12T03:59:01.294Z,1017.66
2019-02-12T04:00:01.306Z,1017.59
2019-02-12T04:01:01.289Z,1017.56
2019-02-12T04:02:01.339Z,1017.56
2019-02-12T04:03:01.300Z,1017.55
2019-02-12T04:04:01.330Z,1017.55
2019-02-12T04:05:01.506Z,1017.58
2019-02-12T04:06:01.233Z,1017.51
2019-02-12T04:07:01.216Z,1017.56
2019-02-12T04:08:01.202Z,1017.56
2019-02-12T04:09:01.277Z,1017.52
2019-02-12T04:10:01.276Z,1017.61
2019-02-12T04:11:01.215Z,1017.68
2019-02-12T04:12:01.159Z,1017.62
2019-02-12T04:13:01.151Z,1017.59
2019-02-12T04:14:01.156Z,1017.61
2019-02-12T04:15:01.202Z,1017.52
2019-02-12T04:16:01.107Z,1017.54
2019-02-12T04:17:01.120Z,1017.52
2019-02-12T04:18:01.109Z,1017.58
2019-02-12T04:19:01.110Z,1017.59
2019-02-12T04:20:01.104Z,1017.56
2019-02-12T04:21:01.124Z,1017.56
2019-02-12T04:22:01.063Z,1017.62
2019-02-12T04:23:01.101Z,1017.57
2019-02-12T04:24:01.027Z,1017.51
2019-02-12T04:25:01.025Z,1017.55
2019-02-12T04:26:01.019Z,1017.51
2019-02-12T04:27:01.029Z,1017.54
2019-02-12T04:28:00.990Z,1017.53
2019-02-12T04:29:00.995Z,1017.50
2019-02-12T04:30:01.000Z,1017.43
2019-02-12T04:31:00.948Z,1017.47
2019-02-12T04:32:00.956Z,1017.46
2019-02-12T04:33:00.931Z,1017.42
2019-02-12T04:34:00.921Z,1017.44
2019-02-12T04:35:00.919Z,1017.44
2019-02-12T04:36:00.964Z,1017.56
2019-02-12T04:37:00.905Z,1017.59
2019-02-12T04:38:00.876Z,1017.62
2019-02-12T04:39:00.873Z,1017.66
2019-02-12T04:40:00.854Z,1017.64
2019-02-12T04:41:00.837Z,1017.63
2019-02-12T04:42:00.902Z,1017.66
2019-02-12T04:43:00.910Z,1017.65
2019-02-12T04:44:00.813Z,1017.68
2019-02-12T04:45:00.825Z,1017.70
2019-02-12T04:46:00.795Z,1017.67
2019-02-12T04:47:00.855Z,1017.73
2019-02-12T04:48:00.814Z,1017.75
2019-02-12T04:49:00.784Z,1017.77
2019-02-12T04:50:00.801Z,1017.75
2019-02-12T04:51:00.737Z,1017.76
2019-02-12T04:52:00.727Z,1017.69
2019-02-12T04:53:00.716Z,1017.69
2019-02-12T04:54:00.786Z,1017.57
2019-02-12T04:55:00.694Z,1017.58
2019-02-12T04:56:00.683Z,1017.63
2019-02-12T04:57:00.674Z,1017.57
2019-02-12T04:58:00.708Z,1017.49
2019-02-12T04:59:00.652Z,1017.53
2019-02-12T05:00:00.794Z,1017.58
2019-02-12T05:01:00.620Z,1017.55
2019-02-12T05:02:00.632Z,1017.63
2019-02-12T05:03:00.627Z,1017.62
2019-02-12T05:04:00.591Z,1017.60
2019-02-12T05:05:00.636Z,1017.58
2019-02-12T05:06:00.592Z,1017.60
2019-02-12T05:07:00.591Z,1017.61
2019-02-12T05:08:00.553Z,1017.59
2019-02-12T05:09:00.540Z,1017.63
2019-02-12T05:10:00.752Z,1017.60
2019-02-12T05:11:00.530Z,1017.69
2019-02-12T05:12:00.539Z,1017.67
2019-02-12T05:13:00.502Z,1017.73
2019-02-12T05:14:00.493Z,1017.71
2019-02-12T05:15:00.479Z,1017.80
2019-02-12T05:16:00.518Z,1017.78
2019-02-12T05:17:00.493Z,1017.85
2019-02-12T05:18:00.492Z,1017.93
2019-02-12T05:19:00.449Z,1017.96
2019-02-12T05:20:00.430Z,1017.91
2019-02-12T05:21:00.422Z,1017.91
2019-02-12T05:22:00.394Z,1017.89
2019-02-12T05:23:00.400Z,1017.97
2019-02-12T05:24:00.444Z,1017.91
2019-02-12T05:25:00.610Z,1018.01
2019-02-12T05:26:00.356Z,1018.02
2019-02-12T05:27:00.349Z,1017.94
2019-02-12T05:28:00.354Z,1017.97
2019-02-12T05:29:01.214Z,1017.88
2019-02-12T05:30:00.377Z,1017.90
2019-02-12T05:31:00.319Z,1017.90
2019-02-12T05:32:00.288Z,1017.95
2019-02-12T05:33:00.294Z,1017.98
2019-02-12T05:34:00.302Z,1017.93
2019-02-12T05:35:00.313Z,1017.96
2019-02-12T05:36:00.311Z,1017.98
2019-02-12T05:37:00.232Z,1018.03
2019-02-12T05:38:00.237Z,1018.05
2019-02-12T05:39:00.212Z,1018.13
2019-02-12T05:40:00.348Z,1018.07
2019-02-12T05:41:00.195Z,1018.19
2019-02-12T05:42:00.291Z,1018.21
2019-02-12T05:43:00.181Z,1018.27
2019-02-12T05:44:00.196Z,1018.33
2019-02-12T05:45:00.239Z,1018.35
2019-02-12T05:46:00.147Z,1018.43
2019-02-12T05:47:00.141Z,1018.44
2019-02-12T05:48:00.210Z,1018.38
2019-02-12T05:49:00.110Z,1018.45
2019-02-12T05:50:00.380Z,1018.47
2019-02-12T05:51:00.083Z,1018.56
2019-02-12T05:52:00.099Z,1018.57
2019-02-12T05:53:00.062Z,1018.55
2019-02-12T05:54:00.126Z,1018.59
2019-02-12T05:55:00.409Z,1018.59
2019-02-12T05:56:00.052Z,1018.63
2019-02-12T05:57:00.027Z,1018.64
2019-02-12T05:58:00.018Z,1018.65
2019-02-12T05:59:00.059Z,1018.68
2019-02-12T06:00:00.012Z,1018.72
2019-02-12T06:01:00.115Z,1018.75
2019-02-12T06:01:59.984Z,1018.75
2019-02-12T06:02:59.956Z,1018.71
2019-02-12T06:03:59.990Z,1018.76
2019-02-12T06:04:59.966Z,1018.75
2019-02-12T06:05:59.981Z,1018.82
2019-02-12T06:06:59.919Z,1018.82
2019-02-12T06:07:59.926Z,1018.88
2019-02-12T06:08:59.898Z,1018.87
2019-02-12T06:09:59.902Z,1018.90
2019-02-12T06:10:59.885Z,1018.84
2019-02-12T06:11:59.919Z,1018.92
2019-02-12T06:12:59.931Z,1018.94
2019-02-12T06:13:59.849Z,1018.97
2019-02-12T06:14:59.847Z,1019.12
2019-02-12T06:15:59.861Z,1019.14
2019-02-12T06:16:59.843Z,1019.12
2019-02-12T06:17:59.883Z,1019.10
2019-02-12T06:19:00.720Z,1019.15
2019-02-12T06:19:59.781Z,1019.15
2019-02-12T06:20:59.765Z,1019.13
2019-02-12T06:21:59.821Z,1019.15
2019-02-12T06:23:03.920Z,1019.16
2019-02-12T06:23:59.734Z,1019.16
2019-02-12T06:24:59.813Z,1019.19
2019-02-12T06:26:00.240Z,1019.19
2019-02-12T06:26:59.776Z,1019.15
2019-02-12T06:27:59.681Z,1019.24
2019-02-12T06:28:59.682Z,1019.19
2019-02-12T06:29:59.672Z,1019.20
2019-02-12T06:30:59.657Z,1019.26
2019-02-12T06:31:59.643Z,1019.32
2019-02-12T06:33:07.194Z,1019.33
2019-02-12T06:34:00.618Z,1019.37
2019-02-12T06:34:59.627Z,1019.38
2019-02-12T06:35:59.606Z,1019.41
2019-02-12T06:36:59.593Z,1019.50
2019-02-12T06:37:59.698Z,1019.51
2019-02-12T06:38:59.576Z,1019.57
2019-02-12T06:39:59.624Z,1019.60
2019-02-12T06:40:59.554Z,1019.51
2019-02-12T06:41:59.542Z,1019.54
2019-02-12T06:42:59.601Z,1019.59
2019-02-12T06:43:59.552Z,1019.49
2019-02-12T06:44:59.510Z,1019.66
2019-02-12T06:45:59.497Z,1019.58
2019-02-12T06:46:59.495Z,1019.67
2019-02-12T06:47:59.485Z,1019.73
2019-02-12T06:48:59.549Z,1019.80
2019-02-12T06:49:59.457Z,1019.77
2019-02-12T06:50:59.456Z,1019.78
2019-02-12T06:51:59.428Z,1019.78
2019-02-12T06:52:59.513Z,1019.72
2019-02-12T06:53:59.414Z,1019.76
2019-02-12T06:54:59.400Z,1019.67
2019-02-12T06:55:59.522Z,1019.66
2019-02-12T06:56:59.401Z,1019.71
2019-02-12T06:57:59.369Z,1019.70
2019-02-12T06:58:59.356Z,1019.75
2019-02-12T06:59:59.369Z,1019.74
2019-02-12T07:00:59.339Z,1019.79
2019-02-12T07:01:59.422Z,1019.79
2019-02-12T07:02:59.310Z,1019.75
2019-02-12T07:03:59.290Z,1019.85
2019-02-12T07:04:59.287Z,1019.82
2019-02-12T07:05:59.270Z,1019.83
2019-02-12T07:06:59.303Z,1019.83
2019-02-12T07:07:59.340Z,1019.82
2019-02-12T07:08:59.253Z,1019.91
2019-02-12T07:09:59.246Z,1019.96
2019-02-12T07:10:59.215Z,1019.96
2019-02-12T07:11:59.233Z,1019.94
2019-02-12T07:12:59.219Z,1019.97
2019-02-12T07:13:59.299Z,1019.99
2019-02-12T07:14:59.266Z,1020.00
2019-02-12T07:15:59.169Z,1020.06
2019-02-12T07:16:59.156Z,1020.08
2019-02-12T07:17:59.155Z,1020.14
2019-02-12T07:18:59.146Z,1020.08
2019-02-12T07:19:59.205Z,1020.14
2019-02-12T07:20:59.112Z,1020.21
2019-02-12T07:21:59.101Z,1020.16
2019-02-12T07:22:59.150Z,1020.17
2019-02-12T07:23:59.079Z,1020.17
2019-02-12T07:24:59.148Z,1020.10
2019-02-12T07:25:59.058Z,1020.19
2019-02-12T07:26:59.054Z,1020.18
2019-02-12T07:27:59.034Z,1020.24
2019-02-12T07:28:59.027Z,1020.27
2019-02-12T07:29:59.048Z,1020.31
2019-02-12T07:30:59.073Z,1020.34
2019-02-12T07:31:58.999Z,1020.34
2019-02-12T07:32:59.009Z,1020.35
2019-02-12T07:33:58.968Z,1020.31
2019-02-12T07:34:58.977Z,1020.30
2019-02-12T07:35:58.953Z,1020.32
2019-02-12T07:36:59.020Z,1020.27
2019-02-12T07:37:59.027Z,1020.24
2019-02-12T07:38:58.922Z,1020.36
2019-02-12T07:39:58.937Z,1020.33
2019-02-12T07:40:58.901Z,1020.40
2019-02-12T07:41:59.150Z,1020.46
2019-02-12T07:42:58.937Z,1020.44
2019-02-12T07:43:58.867Z,1020.46
2019-02-12T07:44:58.860Z,1020.42
2019-02-12T07:45:58.867Z,1020.42
2019-02-12T07:46:58.870Z,1020.47
2019-02-12T07:47:58.838Z,1020.46
2019-02-12T07:48:58.800Z,1020.51
2019-02-12T07:49:59.039Z,1020.48
2019-02-12T07:50:58.785Z,1020.46
2019-02-12T07:51:58.776Z,1020.49
2019-02-12T07:52:58.871Z,1020.49
2019-02-12T07:54:13.750Z,1020.55
2019-02-12T07:54:58.748Z,1020.52
2019-02-12T07:55:58.825Z,1020.54
2019-02-12T07:56:58.743Z,1020.57
2019-02-12T07:57:58.714Z,1020.52
2019-02-12T07:58:58.702Z,1020.51
2019-02-12T07:59:58.699Z,1020.53
2019-02-12T08:00:58.754Z,1020.54
2019-02-12T08:01:58.670Z,1020.57
2019-02-12T08:02:58.662Z,1020.54
2019-02-12T08:03:58.701Z,1020.54
2019-02-12T08:04:58.639Z,1020.55
2019-02-12T08:05:58.686Z,1020.55
2019-02-12T08:06:58.622Z,1020.49
2019-02-12T08:07:58.604Z,1020.50
2019-02-12T08:08:58.586Z,1020.55
2019-02-12T08:09:58.578Z,1020.58
2019-02-12T08:10:58.581Z,1020.56
2019-02-12T08:11:58.629Z,1020.59
2019-02-12T08:12:58.549Z,1020.64
2019-02-12T08:13:58.547Z,1020.64
2019-02-12T08:14:58.562Z,1020.71
2019-02-12T08:15:58.563Z,1020.66
2019-02-12T08:16:58.574Z,1020.63
2019-02-12T08:17:58.497Z,1020.62
2019-02-12T08:18:58.497Z,1020.59
2019-02-12T08:19:58.488Z,1020.74
2019-02-12T08:20:58.461Z,1020.78
2019-02-12T08:21:58.458Z,1020.78
2019-02-12T08:22:58.500Z,1020.78
2019-02-12T08:23:58.435Z,1020.82
2019-02-12T08:24:58.417Z,1020.81
2019-02-12T08:25:58.430Z,1020.83
2019-02-12T08:26:58.392Z,1020.83
2019-02-12T08:27:58.401Z,1020.87
2019-02-12T08:28:58.457Z,1020.86
2019-02-12T08:29:58.371Z,1020.92
2019-02-12T08:30:58.366Z,1020.89
2019-02-12T08:31:58.359Z,1020.88
2019-02-12T08:32:58.345Z,1020.88
2019-02-12T08:33:58.341Z,1020.88
2019-02-12T08:34:58.376Z,1020.85
2019-02-12T08:35:58.300Z,1020.89
2019-02-12T08:36:58.294Z,1020.95
2019-02-12T08:37:58.284Z,1021.02
2019-02-12T08:38:58.271Z,1021.01
2019-02-12T08:39:58.271Z,1021.05
2019-02-12T08:40:58.325Z,1021.13
2019-02-12T08:41:58.266Z,1021.11
2019-02-12T08:42:58.228Z,1021.08
2019-02-12T08:43:58.223Z,1021.01
2019-02-12T08:44:58.228Z,1021.01
2019-02-12T08:45:58.215Z,1021.02
2019-02-12T08:46:58.249Z,1021.30
2019-02-12T08:47:58.252Z,1021.30
2019-02-12T08:48:58.162Z,1021.26
2019-02-12T08:49:58.138Z,1021.04
2019-02-12T08:50:58.135Z,1021.31
2019-02-12T08:51:58.155Z,1021.11
2019-02-12T08:52:58.160Z,1021.11
2019-02-12T08:53:58.105Z,1021.21
2019-02-12T08:54:58.092Z,1020.98
2019-02-12T08:55:58.084Z,1021.03
2019-02-12T08:56:58.136Z,1021.10
2019-02-12T08:57:58.113Z,1021.26
2019-02-12T08:58:58.055Z,1021.36
2019-02-12T08:59:58.036Z,1021.28
2019-02-12T09:00:58.031Z,1021.27
2019-02-12T09:01:58.017Z,1021.09
2019-02-12T09:02:58.103Z,1021.04
2019-02-12T09:03:57.989Z,1021.10
2019-02-12T09:04:58.041Z,1021.11
2019-02-12T09:05:58.039Z,1021.34
2019-02-12T09:06:57.953Z,1021.35
2019-02-12T09:07:57.948Z,1021.12
2019-02-12T09:08:57.941Z,1021.10
2019-02-12T09:09:57.931Z,1021.10
2019-02-12T09:10:57.909Z,1021.14
2019-02-12T09:11:58.001Z,1021.44
2019-02-12T09:12:57.912Z,1021.34
2019-02-12T09:13:57.893Z,1021.16
2019-02-12T09:14:57.888Z,1021.44
2019-02-12T09:15:57.879Z,1021.38
2019-02-12T09:16:57.858Z,1021.29
2019-02-12T09:17:58.407Z,1021.47
2019-02-12T09:18:58.145Z,1021.37
2019-02-12T09:19:58.114Z,1021.15
2019-02-12T09:20:58.182Z,1021.48
2019-02-12T09:21:58.085Z,1021.25
2019-02-12T09:22:58.055Z,1021.18
2019-02-12T09:24:00.404Z,1021.48
2019-02-12T09:24:57.763Z,1021.54
2019-02-12T09:25:57.770Z,1021.30
2019-02-12T09:26:57.751Z,1021.25
2019-02-12T09:27:57.737Z,1021.44
2019-02-12T09:28:57.805Z,1021.49
2019-02-12T09:29:57.707Z,1021.31
2019-02-12T09:30:57.687Z,1021.42
2019-02-12T09:31:57.685Z,1021.38
2019-02-12T09:32:57.690Z,1021.39
2019-02-12T09:33:57.667Z,1021.40
2019-02-12T09:34:57.715Z,1021.75
2019-02-12T09:35:57.641Z,1021.71
2019-02-12T09:36:57.635Z,1021.78
2019-02-12T09:37:57.629Z,1021.57
2019-02-12T09:38:57.629Z,1021.51
2019-02-12T09:39:57.670Z,1021.63
2019-02-12T09:40:57.587Z,1021.74
2019-02-12T09:41:57.584Z,1021.86
2019-02-12T09:42:57.563Z,1021.65
2019-02-12T09:43:57.579Z,1021.72
2019-02-12T09:44:57.570Z,1021.74
2019-02-12T09:45:57.608Z,1021.79
2019-02-12T09:46:57.538Z,1021.76
2019-02-12T09:47:57.511Z,1021.79
2019-02-12T09:48:57.524Z,1022.10
2019-02-12T09:49:57.497Z,1021.90
2019-02-12T09:50:57.522Z,1022.09
2019-02-12T09:51:57.555Z,1021.84
2019-02-12T09:52:57.453Z,1021.82
2019-02-12T09:53:57.445Z,1021.74
2019-02-12T09:54:57.448Z,1021.76
2019-02-12T09:55:57.440Z,1021.83
2019-02-12T09:56:57.409Z,1021.91
2019-02-12T09:57:57.471Z,1021.84
2019-02-12T09:58:57.387Z,1021.93
2019-02-12T09:59:57.384Z,1022.01
2019-02-12T10:00:57.385Z,1022.07
2019-02-12T10:01:57.355Z,1022.10
2019-02-12T10:02:57.417Z,1022.02
2019-02-12T10:03:57.342Z,1022.07
2019-02-12T10:04:57.314Z,1022.12
2019-02-12T10:05:57.311Z,1022.14
2019-02-12T10:06:57.304Z,1022.18
2019-02-12T10:07:57.360Z,1022.19
2019-02-12T10:08:57.817Z,1022.21
2019-02-12T10:09:57.264Z,1022.20
2019-02-12T10:10:57.263Z,1022.23
2019-02-12T10:11:57.267Z,1022.22
2019-02-12T10:12:57.238Z,1022.20
2019-02-12T10:13:57.231Z,1022.21
2019-02-12T10:14:57.363Z,1022.27
2019-02-12T10:15:57.211Z,1022.32
2019-02-12T10:16:57.209Z,1022.65
2019-02-12T10:17:57.187Z,1022.29
2019-02-12T10:18:57.168Z,1022.28
2019-02-12T10:19:57.155Z,1022.31
2019-02-12T10:20:57.216Z,1022.25
2019-02-12T10:21:57.126Z,1022.24
2019-02-12T10:22:57.128Z,1022.27
2019-02-12T10:23:57.183Z,1022.28
2019-02-12T10:24:57.161Z,1022.54
2019-02-12T10:25:57.176Z,1022.51
2019-02-12T10:26:57.140Z,1022.48
2019-02-12T10:27:57.078Z,1022.18
2019-02-12T10:28:57.080Z,1022.22
2019-02-12T10:29:57.050Z,1022.27
2019-02-12T10:30:57.046Z,1022.23
2019-02-12T10:31:57.075Z,1022.26
2019-02-12T10:32:57.048Z,1022.37
2019-02-12T10:33:56.989Z,1022.32
2019-02-12T10:34:56.991Z,1022.31
2019-02-12T10:35:57.056Z,1022.33
2019-02-12T10:36:56.968Z,1022.45
2019-02-12T10:37:56.953Z,1022.30
2019-02-12T10:38:56.955Z,1022.30
2019-02-12T10:39:56.950Z,1022.31
2019-02-12T10:40:56.926Z,1022.34
2019-02-12T10:41:57.033Z,1022.44
2019-02-12T10:42:56.891Z,1022.37
2019-02-12T10:43:56.892Z,1022.38
2019-02-12T10:44:56.884Z,1022.40
2019-02-12T10:45:56.865Z,1022.40
2019-02-12T10:46:56.917Z,1022.37
2019-02-12T10:47:56.865Z,1022.36
2019-02-12T10:48:56.853Z,1022.44
2019-02-12T10:49:56.857Z,1022.43
2019-02-12T10:50:56.803Z,1022.47
2019-02-12T10:51:56.805Z,1022.41
2019-02-12T10:52:56.860Z,1022.47
2019-02-12T10:53:56.826Z,1022.47
2019-02-12T10:54:56.761Z,1022.47
2019-02-12T10:55:56.808Z,1022.55
2019-02-12T10:56:56.825Z,1022.48
2019-02-12T10:57:56.779Z,1022.52
2019-02-12T10:58:56.832Z,1022.63
2019-02-12T10:59:56.797Z,1022.69
2019-02-12T11:00:56.702Z,1022.70
2019-02-12T11:01:56.693Z,1022.70
2019-02-12T11:02:56.711Z,1022.71
2019-02-12T11:03:56.719Z,1022.74
2019-02-12T11:04:56.733Z,1022.59
2019-02-12T11:05:56.657Z,1022.70
2019-02-12T11:06:56.638Z,1022.59
2019-02-12T11:07:56.638Z,1022.62
2019-02-12T11:08:56.614Z,1022.40
2019-02-12T11:09:56.604Z,1022.19
2019-02-12T11:10:56.644Z,1022.26
2019-02-12T11:11:56.616Z,1022.46
2019-02-12T11:12:56.571Z,1022.49
2019-02-12T11:13:56.624Z,1022.46
2019-02-12T11:14:56.565Z,1022.25
2019-02-12T11:15:56.555Z,1022.38
2019-02-12T11:16:56.531Z,1022.38
2019-02-12T11:17:56.511Z,1022.59
2019-02-12T11:18:56.501Z,1022.36
2019-02-12T11:19:56.574Z,1022.39
2019-02-12T11:20:56.485Z,1022.40
2019-02-12T11:21:56.478Z,1022.50
2019-02-12T11:22:56.486Z,1022.72
2019-02-12T11:23:56.472Z,1022.44
2019-02-12T11:24:56.441Z,1022.44
2019-02-12T11:25:56.503Z,1022.50
2019-02-12T11:26:56.421Z,1022.53
2019-02-12T11:27:56.472Z,1022.54
2019-02-12T11:28:56.399Z,1022.89
2019-02-12T11:29:56.373Z,1022.77
2019-02-12T11:30:56.380Z,1022.78
2019-02-12T11:31:56.377Z,1022.39
2019-02-12T11:32:56.356Z,1022.38
2019-02-12T11:33:56.403Z,1022.42
2019-02-12T11:34:56.388Z,1022.43
2019-02-12T11:35:56.306Z,1022.45
2019-02-12T11:36:56.309Z,1022.56
2019-02-12T11:37:56.288Z,1022.51
2019-02-12T11:38:56.315Z,1022.58
2019-02-12T11:39:56.295Z,1022.56
2019-02-12T11:40:56.343Z,1022.58
2019-02-12T11:41:56.244Z,1022.58
2019-02-12T11:42:56.245Z,1022.54
2019-02-12T11:43:56.229Z,1022.65
2019-02-12T11:44:56.224Z,1022.79
2019-02-12T11:45:56.210Z,1022.96
2019-02-12T11:46:56.249Z,1022.86
2019-02-12T11:47:56.178Z,1022.51
2019-02-12T11:48:56.162Z,1022.50
2019-02-12T11:49:56.164Z,1022.58
2019-02-12T11:50:56.157Z,1022.56
2019-02-12T11:51:56.195Z,1022.58
2019-02-12T11:52:56.776Z,1022.64
2019-02-12T11:53:56.114Z,1022.57
2019-02-12T11:54:56.104Z,1022.53
2019-02-12T11:55:56.103Z,1022.87
2019-02-12T11:56:56.112Z,1022.68
2019-02-12T11:57:56.130Z,1022.82
2019-02-12T11:58:56.061Z,1022.57
2019-02-12T11:59:56.047Z,1022.59
2019-02-12T12:00:56.052Z,1022.58
2019-02-12T12:01:56.781Z,1022.66
2019-02-12T12:02:56.079Z,1022.64
2019-02-12T12:03:56.073Z,1022.66
2019-02-12T12:04:56.055Z,1022.70